Time;durP1;ratioP1;P1;durP2;ratioP2;P2;SDS_P1;SDS_P2;PMS_P1;PMS_P2;Temp;Humidity;BMP_temperature;BMP_pressure;BME280_temperature;BME280_humidity;BME280_pressure;Samples;Min_cycle;Max_cycle;Signal;HPM_P1;HPM_P2
2023/01/02 00:04:15;;;;;;;3.07;2.50;;;15.20;97.50;;;;;;10371426;28;20695;-80
2023/01/02 00:09:18;;;;;;;5.27;3.10;;;15.10;98.40;;;;;;10354225;28;20187;-80
2023/01/02 00:14:21;;;;;;;3.33;2.60;;;15.10;98.30;;;;;;10350730;28;20550;-80
2023/01/02 00:19:23;;;;;;;3.57;2.20;;;15.10;97.60;;;;;;10325358;28;20306;-79
2023/01/02 00:24:25;;;;;;;4.13;3.23;;;15.10;98.00;;;;;;10349770;28;20302;-80
2023/01/02 00:29:29;;;;;;;4.60;2.67;;;15.00;98.00;;;;;;10368846;28;20217;-80
2023/01/02 00:34:31;;;;;;;9.40;4.37;;;15.00;98.80;;;;;;10357755;28;20264;-80
2023/01/02 00:39:33;;;;;;;6.03;3.27;;;15.00;98.60;;;;;;10350505;28;20297;-80
2023/01/02 00:44:36;;;;;;;7.10;4.50;;;14.90;99.30;;;;;;10340992;28;20280;-80
2023/01/02 00:49:38;;;;;;;14.90;7.10;;;14.90;98.30;;;;;;10337150;28;20225;-80
2023/01/02 00:54:40;;;;;;;11.73;6.40;;;14.90;98.40;;;;;;10369760;28;20218;-80
2023/01/02 00:59:44;;;;;;;7.70;6.40;;;14.80;98.90;;;;;;10335887;28;20242;-80
2023/01/02 01:04:46;;;;;;;10.23;5.40;;;14.80;98.60;;;;;;10364009;28;20226;-80
2023/01/02 01:09:48;;;;;;;5.10;4.53;;;14.70;99.20;;;;;;10342202;28;20282;-80
2023/01/02 01:14:51;;;;;;;4.43;4.03;;;14.70;98.70;;;;;;10371470;23;20225;-79
2023/01/02 01:19:53;;;;;;;5.13;4.63;;;14.60;99.00;;;;;;10383167;28;20682;-79
2023/01/02 01:24:56;;;;;;;6.57;4.70;;;14.50;99.20;;;;;;10413603;28;20217;-79
2023/01/02 01:29:59;;;;;;;5.60;4.77;;;14.40;99.60;;;;;;10396486;28;20237;-79
2023/01/02 01:35:01;;;;;;;7.80;4.30;;;14.30;99.80;;;;;;10361390;28;20286;-79
2023/01/02 01:40:04;;;;;;;5.43;4.70;;;14.20;99.90;;;;;;10394264;28;20219;-79
2023/01/02 01:45:15;;;;;;;8.90;6.40;;;14.10;99.90;;;;;;10380852;28;20211;-79
2023/01/02 01:50:27;;;;;;;14.37;5.87;;;14.10;99.90;;;;;;10385264;28;20187;-79
2023/01/02 01:55:57;;;;;;;7.00;6.30;;;14.00;99.90;;;;;;10389586;28;20226;-79
2023/01/02 02:01:01;;;;;;;6.40;4.37;;;13.90;99.90;;;;;;10384248;28;20214;-80
2023/01/02 02:06:04;;;;;;;10.70;6.13;;;13.90;99.90;;;;;;10382456;28;20206;-80
2023/01/02 02:11:06;;;;;;;10.23;5.60;;;13.90;99.90;;;;;;10405404;28;20190;-80
2023/01/02 02:16:21;;;;;;;9.00;5.43;;;13.80;99.90;;;;;;10362445;28;20250;-80
2023/01/02 02:21:50;;;;;;;6.03;5.53;;;13.70;99.90;;;;;;10347917;28;20608;-80
2023/01/02 02:27:21;;;;;;;5.70;4.43;;;13.70;99.90;;;;;;10389357;28;20218;-79
2023/01/02 02:32:33;;;;;;;6.40;4.50;;;13.70;99.90;;;;;;10347015;28;20274;-79
2023/01/02 02:44:37;;;;;;;3.60;3.37;;;13.70;99.90;;;;;;10350859;28;20222;-80
2023/01/02 02:49:48;;;;;;;9.03;5.57;;;13.70;99.90;;;;;;10381879;28;20728;-79
2023/01/02 02:54:56;;;;;;;3.53;3.23;;;13.60;99.90;;;;;;10387492;28;20218;-80
2023/01/02 02:59:59;;;;;;;4.07;3.77;;;13.60;99.90;;;;;;10388044;28;20200;-80
2023/01/02 03:05:05;;;;;;;3.60;3.33;;;13.70;99.90;;;;;;10395818;28;20226;-80
2023/01/02 03:10:18;;;;;;;4.03;3.57;;;13.50;99.90;;;;;;10375843;28;20245;-80
2023/01/02 03:15:28;;;;;;;3.20;2.90;;;13.50;99.90;;;;;;10368607;28;20232;-80
2023/01/02 03:20:37;;;;;;;7.67;3.00;;;13.50;99.90;;;;;;10386527;28;20248;-79
2023/01/02 03:25:40;;;;;;;3.53;3.23;;;13.50;99.90;;;;;;10384073;28;20225;-80
2023/01/02 03:30:43;;;;;;;3.57;3.27;;;13.60;99.60;;;;;;10385724;28;20218;-81
2023/01/02 03:35:50;;;;;;;3.77;3.13;;;13.70;99.50;;;;;;10361917;28;20251;-80
2023/01/02 03:41:01;;;;;;;3.13;2.90;;;13.80;99.30;;;;;;10392257;28;20200;-80
2023/01/02 03:46:10;;;;;;;3.80;3.47;;;13.90;98.70;;;;;;10388365;28;20309;-80
2023/01/02 03:51:14;;;;;;;3.20;2.90;;;14.00;98.20;;;;;;10391964;28;20217;-80
2023/01/02 03:56:23;;;;;;;4.10;3.20;;;14.10;98.30;;;;;;10392792;28;20214;-79
2023/01/02 04:08:16;;;;;;;3.43;3.13;;;14.20;98.20;;;;;;10359906;28;20215;-79
2023/01/02 04:13:21;;;;;;;4.33;3.40;;;14.20;98.30;;;;;;10358582;28;20742;-79
2023/01/02 04:18:27;;;;;;;4.73;3.60;;;14.20;98.50;;;;;;10392811;28;20636;-79
2023/01/02 04:23:36;;;;;;;3.87;3.57;;;14.10;98.90;;;;;;10391042;28;20618;-79
2023/01/02 04:28:38;;;;;;;4.87;3.13;;;13.90;99.00;;;;;;10391581;28;20631;-79
2023/01/02 04:33:45;;;;;;;3.67;3.33;;;13.80;99.10;;;;;;10385629;28;20640;-80
2023/01/02 04:38:49;;;;;;;3.70;3.40;;;13.80;99.10;;;;;;10376370;28;20263;-79
2023/01/02 04:43:51;;;;;;;3.50;3.27;;;13.70;99.00;;;;;;10395465;28;20219;-79
2023/01/02 04:48:54;;;;;;;5.53;3.23;;;13.70;99.00;;;;;;10363065;28;20209;-79
2023/01/02 04:53:57;;;;;;;3.73;3.53;;;13.70;99.00;;;;;;10403095;28;20219;-79
2023/01/02 04:59:00;;;;;;;3.67;3.20;;;13.70;99.50;;;;;;10368152;28;20677;-79
2023/01/02 05:04:02;;;;;;;3.80;3.60;;;13.60;99.40;;;;;;10382633;28;20250;-80
2023/01/02 05:09:05;;;;;;;3.57;3.37;;;13.50;99.50;;;;;;10381268;28;20223;-80
2023/01/02 05:14:07;;;;;;;3.73;3.43;;;13.50;99.20;;;;;;10365038;28;20583;-80
2023/01/02 05:19:10;;;;;;;4.20;3.50;;;13.50;98.70;;;;;;10360765;28;20198;-81
2023/01/02 05:24:13;;;;;;;3.50;3.20;;;13.50;98.80;;;;;;10397546;28;20562;-81
2023/01/02 05:29:15;;;;;;;4.40;3.40;;;13.60;99.10;;;;;;10395190;28;20223;-80
2023/01/02 05:34:19;;;;;;;5.13;3.23;;;13.60;99.30;;;;;;10367010;28;20265;-79
2023/01/02 05:39:22;;;;;;;12.10;6.73;;;13.60;98.90;;;;;;10367038;28;20664;-82
2023/01/02 05:44:25;;;;;;;10.87;8.77;;;13.60;98.70;;;;;;10369308;28;20219;-84
2023/01/02 05:49:27;;;;;;;7.90;5.30;;;13.60;98.80;;;;;;10370955;28;20223;-83
2023/01/02 05:54:30;;;;;;;11.77;10.57;;;13.60;98.40;;;;;;10347676;28;20211;-82
2023/01/02 05:59:32;;;;;;;6.70;5.50;;;13.60;97.80;;;;;;10348151;28;20583;-83
2023/01/02 06:04:35;;;;;;;8.67;5.53;;;13.60;97.60;;;;;;10366275;28;20227;-85
2023/01/02 06:09:38;;;;;;;6.43;5.80;;;13.60;97.40;;;;;;10363612;28;20218;-86
2023/01/02 06:14:40;;;;;;;10.63;7.70;;;13.70;97.60;;;;;;10389915;28;20242;-84
2023/01/02 06:19:42;;;;;;;5.43;4.30;;;13.80;96.70;;;;;;10368745;28;20201;-86
2023/01/02 06:24:46;;;;;;;6.67;4.27;;;13.90;97.00;;;;;;10373711;28;20223;-85
2023/01/02 06:29:48;;;;;;;5.20;3.43;;;13.90;96.90;;;;;;10361959;28;20738;-83
2023/01/02 06:34:50;;;;;;;6.17;4.00;;;14.00;96.30;;;;;;10368762;28;20238;-84
2023/01/02 06:39:53;;;;;;;11.17;6.80;;;14.00;95.70;;;;;;10351058;28;20187;-84
2023/01/02 06:44:55;;;;;;;5.10;4.60;;;14.10;96.10;;;;;;10398881;28;20226;-81
2023/01/02 06:49:57;;;;;;;6.13;3.83;;;14.10;96.50;;;;;;10386232;28;20238;-84
2023/01/02 06:55:01;;;;;;;5.73;4.50;;;14.20;95.80;;;;;;10373016;28;20501;-84
2023/01/02 07:00:04;;;;;;;6.93;3.40;;;14.10;96.20;;;;;;10350932;28;20206;-86
2023/01/02 07:05:07;;;;;;;4.07;3.67;;;14.10;96.10;;;;;;10365665;28;20667;-87
2023/01/02 07:10:10;;;;;;;5.40;3.70;;;14.10;97.10;;;;;;10332157;28;20219;-85
2023/01/02 07:15:12;;;;;;;7.73;4.57;;;14.10;95.60;;;;;;10340339;23;20249;-81
2023/01/02 07:20:15;;;;;;;11.23;4.90;;;14.20;94.90;;;;;;10364243;28;20670;-84
2023/01/02 07:25:18;;;;;;;9.37;5.13;;;14.20;96.50;;;;;;10358874;28;20219;-81
2023/01/02 07:30:20;;;;;;;4.40;4.00;;;14.20;95.90;;;;;;10355948;28;20724;-81
2023/01/02 07:35:22;;;;;;;6.97;3.80;;;14.20;97.90;;;;;;10361023;28;20233;-81
2023/01/02 07:40:26;;;;;;;4.53;4.07;;;14.20;97.40;;;;;;10362015;28;20223;-82
2023/01/02 07:45:28;;;;;;;3.90;3.60;;;14.10;97.80;;;;;;10342268;28;20215;-81
2023/01/02 07:50:30;;;;;;;3.83;3.40;;;14.10;97.10;;;;;;10344130;28;20227;-81
2023/01/02 07:55:33;;;;;;;3.60;3.00;;;14.10;97.80;;;;;;10362495;28;20755;-81
2023/01/02 08:00:35;;;;;;;4.67;3.30;;;14.10;97.10;;;;;;10370011;28;20294;-81
2023/01/02 08:05:37;;;;;;;4.23;3.80;;;14.10;97.90;;;;;;10374765;28;20224;-81
2023/01/02 08:10:41;;;;;;;3.77;3.33;;;14.10;97.10;;;;;;10360917;28;20302;-81
2023/01/02 08:15:43;;;;;;;4.77;3.90;;;14.10;97.00;;;;;;10320740;28;20223;-81
2023/01/02 08:20:45;;;;;;;5.60;4.03;;;14.10;96.30;;;;;;10340382;28;20207;-81
2023/01/02 08:25:48;;;;;;;4.63;3.53;;;14.10;96.80;;;;;;10314344;28;20245;-81
2023/01/02 08:30:50;;;;;;;4.80;3.80;;;14.10;97.90;;;;;;10315896;28;20552;-81
2023/01/02 08:35:52;;;;;;;6.57;3.70;;;14.20;97.20;;;;;;10317429;28;20215;-81
2023/01/02 08:40:57;;;;;;;6.53;3.77;;;14.10;97.40;;;;;;10312618;28;20206;-81
2023/01/02 08:46:03;;;;;;;7.73;4.07;;;14.10;97.50;;;;;;10314834;28;20219;-81
2023/01/02 08:51:05;;;;;;;4.77;3.33;;;14.10;97.20;;;;;;10318958;28;20524;-81
2023/01/02 08:56:20;;;;;;;4.90;3.10;;;14.10;96.60;;;;;;10318115;28;20207;-81
2023/01/02 09:01:24;;;;;;;4.03;2.80;;;14.30;97.30;;;;;;10317487;28;20193;-81
2023/01/02 09:06:27;;;;;;;5.90;2.70;;;14.40;99.20;;;;;;10317250;28;20221;-81
2023/01/02 09:11:41;;;;;;;4.20;2.50;;;14.40;97.70;;;;;;10316237;28;20224;-81
2023/01/02 09:16:45;;;;;;;4.27;3.17;;;14.40;98.80;;;;;;10333703;28;20260;-81
2023/01/02 09:21:47;;;;;;;7.67;3.10;;;14.30;98.80;;;;;;10320277;28;20695;-81
2023/01/02 09:26:52;;;;;;;5.10;3.30;;;14.40;97.10;;;;;;10318566;28;20253;-81
2023/01/02 09:31:54;;;;;;;7.50;4.07;;;14.30;95.90;;;;;;10318575;28;20211;-80
2023/01/02 09:36:56;;;;;;;6.03;3.20;;;14.30;95.80;;;;;;10329756;28;20547;-80
2023/01/02 09:42:12;;;;;;;6.23;3.30;;;14.30;95.40;;;;;;10303764;28;20195;-80
2023/01/02 09:47:17;;;;;;;14.80;7.03;;;14.40;96.90;;;;;;10350747;28;20232;-80
2023/01/02 09:52:23;;;;;;;5.70;2.83;;;14.50;94.60;;;;;;10358152;28;20219;-80
2023/01/02 09:57:38;;;;;;;4.10;2.77;;;14.60;94.50;;;;;;10344544;28;20243;-84
2023/01/02 10:02:58;;;;;;;9.83;3.63;;;14.80;94.20;;;;;;10353485;28;20265;-85
2023/01/02 10:08:09;;;;;;;8.40;2.60;;;14.90;93.40;;;;;;10365931;28;20225;-82
2023/01/02 10:13:19;;;;;;;4.50;2.40;;;15.00;92.80;;;;;;10370390;28;20230;-82
2023/01/02 10:18:26;;;;;;;3.00;2.67;;;15.10;94.60;;;;;;10359733;28;20712;-82
2023/01/02 10:23:35;;;;;;;4.67;2.80;;;15.10;95.50;;;;;;10335887;28;20229;-83
2023/01/02 10:28:47;;;;;;;5.17;3.13;;;15.10;95.50;;;;;;10340395;28;20230;-84
2023/01/02 10:33:54;;;;;;;6.27;2.97;;;15.10;94.30;;;;;;10352645;28;20242;-84
2023/01/02 10:39:00;;;;;;;7.83;2.33;;;15.10;93.10;;;;;;10353359;28;21100;-84
2023/01/02 10:44:07;;;;;;;4.90;3.13;;;15.20;93.00;;;;;;10342589;28;20225;-84
2023/01/02 10:49:12;;;;;;;6.93;3.00;;;15.20;94.00;;;;;;10349449;28;20211;-83
2023/01/02 10:54:14;;;;;;;4.00;2.90;;;15.20;92.90;;;;;;10344651;28;20215;-84
2023/01/02 10:59:21;;;;;;;5.93;2.57;;;15.30;90.90;;;;;;10360002;28;20203;-84
2023/01/02 11:04:25;;;;;;;5.63;3.03;;;15.40;91.20;;;;;;10349847;28;20725;-82
2023/01/02 11:09:28;;;;;;;5.47;2.77;;;15.50;91.00;;;;;;10326420;28;20269;-83
2023/01/02 11:14:35;;;;;;;6.20;2.90;;;15.50;93.90;;;;;;10355954;28;20297;-83
2023/01/02 11:19:42;;;;;;;5.27;2.37;;;15.50;91.40;;;;;;10340733;28;20203;-82
2023/01/02 11:24:58;;;;;;;6.53;2.53;;;15.50;90.90;;;;;;10341794;28;20223;-84
2023/01/02 11:30:03;;;;;;;8.23;2.93;;;15.70;90.80;;;;;;10332643;28;20241;-85
2023/01/02 11:35:26;;;;;;;4.43;3.00;;;15.80;92.50;;;;;;10351831;28;20252;-84
2023/01/02 11:40:30;;;;;;;7.93;3.37;;;15.90;91.10;;;;;;10350333;28;20628;-84
2023/01/02 11:45:35;;;;;;;9.20;2.87;;;16.00;91.40;;;;;;10352172;28;20207;-84
2023/01/02 11:50:38;;;;;;;9.37;4.27;;;16.10;91.70;;;;;;10346173;28;20567;-84
2023/01/02 11:55:46;;;;;;;4.33;2.90;;;16.20;91.70;;;;;;10353319;28;20219;-84
2023/01/02 12:00:54;;;;;;;7.57;2.57;;;16.30;91.70;;;;;;10340600;28;20643;-83
2023/01/02 12:06:05;;;;;;;7.37;2.50;;;16.40;90.60;;;;;;10348935;28;20215;-82
2023/01/02 12:11:16;;;;;;;3.90;2.47;;;16.50;89.70;;;;;;10349236;28;20245;-82
2023/01/02 12:16:28;;;;;;;9.30;3.83;;;16.50;91.10;;;;;;10351872;28;20683;-81
2023/01/02 12:21:38;;;;;;;9.80;6.23;;;16.50;90.50;;;;;;10341383;28;20190;-79
2023/01/02 12:26:44;;;;;;;5.60;2.80;;;16.50;90.40;;;;;;10321055;28;20223;-79
2023/01/02 12:31:58;;;;;;;10.20;3.60;;;16.50;90.20;;;;;;10330814;28;20219;-83
2023/01/02 12:37:14;;;;;;;4.20;2.87;;;16.60;88.80;;;;;;10335865;28;20279;-83
2023/01/02 12:42:30;;;;;;;4.90;2.80;;;16.60;90.30;;;;;;10339059;28;20199;-82
2023/01/02 12:47:53;;;;;;;6.27;4.23;;;16.60;90.60;;;;;;10330010;28;20311;-83
2023/01/02 12:53:06;;;;;;;7.97;3.80;;;16.60;91.20;;;;;;10330367;28;20226;-82
2023/01/02 12:58:18;;;;;;;7.00;3.90;;;16.60;92.10;;;;;;10334855;28;20299;-81
2023/01/02 13:03:39;;;;;;;5.63;3.20;;;16.60;91.10;;;;;;10331445;28;20637;-80
2023/01/02 13:08:53;;;;;;;15.77;4.27;;;16.60;91.80;;;;;;10337253;28;20679;-82
2023/01/02 13:13:56;;;;;;;9.20;3.80;;;16.50;90.60;;;;;;10359630;23;20227;-83
2023/01/02 13:19:15;;;;;;;8.10;3.93;;;16.40;93.60;;;;;;10349691;28;20191;-83
2023/01/02 13:24:22;;;;;;;19.43;9.97;;;16.30;94.20;;;;;;10341246;28;20222;-82
2023/01/02 13:29:39;;;;;;;7.03;4.00;;;16.20;92.80;;;;;;10349258;28;20226;-83
2023/01/02 13:34:50;;;;;;;8.33;3.73;;;16.10;93.30;;;;;;10327593;28;20725;-83
2023/01/02 13:39:55;;;;;;;10.30;4.20;;;16.10;92.60;;;;;;10337936;28;20853;-83
2023/01/02 13:44:59;;;;;;;7.00;4.40;;;16.10;92.30;;;;;;10325948;28;20582;-81
2023/01/02 13:50:09;;;;;;;11.47;4.73;;;16.00;92.60;;;;;;10324903;28;20774;-81
2023/01/02 13:55:30;;;;;;;7.20;4.37;;;16.10;93.00;;;;;;10326054;28;20644;-83
2023/01/02 14:00:36;;;;;;;5.20;4.00;;;16.10;94.10;;;;;;10308243;28;20195;-82
2023/01/02 14:06:23;;;;;;;8.47;4.37;;;16.10;92.60;;;;;;10333713;28;20223;-82
2023/01/02 14:11:31;;;;;;;13.63;3.80;;;16.10;91.70;;;;;;10224456;28;20311;-81
2023/01/02 14:16:52;;;;;;;7.97;4.47;;;16.10;91.40;;;;;;10339526;28;20250;-82
2023/01/02 14:22:05;;;;;;;9.80;4.00;;;16.00;92.20;;;;;;10315297;28;21126;-81
2023/01/02 14:27:21;;;;;;;8.90;4.80;;;16.00;93.40;;;;;;10331123;28;20250;-82
2023/01/02 14:32:35;;;;;;;10.47;4.10;;;16.00;93.60;;;;;;10309244;28;20254;-80
2023/01/02 14:37:41;;;;;;;10.27;4.07;;;15.90;93.10;;;;;;10313424;28;20278;-81
2023/01/02 14:48:15;;;;;;;9.60;4.10;;;15.80;93.10;;;;;;10309397;28;20207;-82
2023/01/02 14:53:21;;;;;;;6.50;4.37;;;15.80;95.80;;;;;;10326645;28;20262;-82
2023/01/02 14:58:33;;;;;;;10.50;4.40;;;15.70;97.10;;;;;;10323952;28;20219;-82
2023/01/02 15:03:45;;;;;;;11.60;4.07;;;15.60;94.20;;;;;;10314982;28;20719;-83
2023/01/02 15:08:50;;;;;;;6.93;4.00;;;15.60;93.80;;;;;;10307818;28;20203;-82
2023/01/02 15:13:54;;;;;;;6.90;4.67;;;15.60;93.20;;;;;;10310847;28;20215;-82
2023/01/02 15:18:59;;;;;;;5.07;3.60;;;15.60;94.30;;;;;;10333310;28;20230;-83
2023/01/02 15:24:02;;;;;;;8.40;4.23;;;15.70;91.70;;;;;;10315997;28;20688;-83
2023/01/02 15:29:19;;;;;;;7.07;3.93;;;15.70;92.30;;;;;;10332905;28;20195;-83
2023/01/02 15:34:26;;;;;;;10.23;4.90;;;15.70;93.90;;;;;;10333881;28;20612;-82
2023/01/02 15:39:38;;;;;;;8.23;3.90;;;15.70;92.70;;;;;;10324172;28;20453;-81
2023/01/02 15:50:05;;;;;;;8.00;4.00;;;15.50;94.20;;;;;;10303046;28;20724;-80
2023/01/02 15:55:13;;;;;;;7.67;4.07;;;15.50;93.70;;;;;;10323953;28;20219;-82
2023/01/02 16:00:36;;;;;;;9.37;4.10;;;15.50;94.60;;;;;;10335995;28;20573;-82
2023/01/02 16:05:48;;;;;;;9.20;4.30;;;15.40;94.70;;;;;;10301710;28;20220;-81
2023/01/02 16:10:59;;;;;;;6.37;3.87;;;15.30;95.00;;;;;;10299373;28;20224;-81
2023/01/02 16:16:05;;;;;;;6.40;3.37;;;15.30;95.70;;;;;;10337055;28;20227;-80
2023/01/02 16:21:09;;;;;;;6.33;4.47;;;15.20;95.20;;;;;;10325694;28;20282;-80
2023/01/02 16:26:13;;;;;;;6.23;3.40;;;15.20;95.70;;;;;;10336883;28;20661;-81
2023/01/02 16:31:18;;;;;;;7.13;3.93;;;15.20;95.50;;;;;;10303664;28;20257;-81
2023/01/02 16:36:25;;;;;;;5.70;3.40;;;15.00;96.40;;;;;;10337184;28;20651;-81
2023/01/02 16:47:19;;;;;;;5.80;3.53;;;14.90;96.90;;;;;;10300414;28;20586;-81
2023/01/02 16:52:21;;;;;;;6.70;3.60;;;14.80;97.70;;;;;;10333139;28;20255;-83
2023/01/02 16:57:23;;;;;;;8.63;4.07;;;14.80;97.90;;;;;;10336588;28;20218;-82
2023/01/02 17:02:27;;;;;;;5.27;3.90;;;14.70;98.20;;;;;;10330095;28;20210;-82
2023/01/02 17:07:29;;;;;;;5.30;4.20;;;14.80;98.20;;;;;;10302100;28;20216;-81
2023/01/02 17:12:31;;;;;;;6.27;4.00;;;14.70;98.60;;;;;;10332845;28;20230;-81
2023/01/02 17:17:35;;;;;;;5.67;4.53;;;14.70;98.80;;;;;;10337790;28;20279;-81
2023/01/02 17:22:37;;;;;;;3.87;3.50;;;14.70;99.30;;;;;;10339142;28;20566;-81
2023/01/02 17:27:40;;;;;;;9.33;4.57;;;14.70;99.60;;;;;;10282072;28;20223;-82
2023/01/02 17:32:44;;;;;;;4.63;4.20;;;14.60;99.80;;;;;;10293309;28;20282;-82
2023/01/02 17:37:48;;;;;;;6.13;4.37;;;14.60;99.90;;;;;;10324770;28;20322;-81
2023/01/02 17:42:50;;;;;;;5.67;4.03;;;14.70;99.90;;;;;;10302886;28;20189;-81
2023/01/02 17:47:53;;;;;;;6.20;5.20;;;14.60;99.90;;;;;;10315882;28;20227;-82
2023/01/02 17:52:55;;;;;;;7.90;4.80;;;14.60;99.90;;;;;;10330986;28;20215;-84
2023/01/02 17:57:59;;;;;;;6.77;4.10;;;14.60;99.90;;;;;;10299342;28;20751;-84
2023/01/02 18:03:02;;;;;;;5.90;4.63;;;14.60;99.90;;;;;;10322056;28;20192;-83
2023/01/02 18:08:05;;;;;;;6.77;4.53;;;14.50;99.90;;;;;;10284061;28;20251;-84
2023/01/02 18:13:07;;;;;;;8.00;5.10;;;14.50;99.90;;;;;;10323061;28;20382;-83
2023/01/02 18:18:15;;;;;;;7.20;5.03;;;14.50;99.90;;;;;;10324651;28;20227;-82
2023/01/02 18:23:18;;;;;;;6.53;4.90;;;14.50;99.90;;;;;;10306390;28;20546;-83
2023/01/02 18:28:24;;;;;;;5.43;4.33;;;14.50;99.90;;;;;;10323842;28;20685;-83
2023/01/02 18:33:28;;;;;;;5.30;4.37;;;14.50;99.90;;;;;;10321070;28;20207;-80
2023/01/02 18:38:33;;;;;;;4.57;4.17;;;14.50;99.90;;;;;;10364213;28;20196;-81
2023/01/02 18:43:35;;;;;;;7.80;4.63;;;14.50;99.90;;;;;;10363467;28;20222;-80
2023/01/02 18:48:39;;;;;;;4.27;3.07;;;14.50;99.90;;;;;;10320818;28;20649;-84
2023/01/02 18:53:46;;;;;;;2.60;2.50;;;14.50;99.90;;;;;;10283659;28;20254;-84
2023/01/02 18:58:55;;;;;;;2.30;2.10;;;14.40;99.90;;;;;;10332483;28;20191;-84
2023/01/02 19:04:18;;;;;;;5.27;4.77;;;14.40;99.90;;;;;;10314736;28;20224;-83
2023/01/02 19:09:22;;;;;;;3.03;2.83;;;14.30;99.80;;;;;;10343991;28;20203;-82
2023/01/02 19:14:30;;;;;;;2.57;2.40;;;14.20;99.90;;;;;;10330350;23;20231;-80
2023/01/02 19:19:33;;;;;;;1.90;1.80;;;14.10;99.90;;;;;;10285577;28;20207;-81
2023/01/02 19:24:37;;;;;;;2.27;2.07;;;14.00;99.60;;;;;;10282758;28;20220;-80
2023/01/02 19:29:47;;;;;;;2.10;1.87;;;14.00;99.90;;;;;;10261729;28;20206;-81
2023/01/02 19:34:51;;;;;;;2.70;2.50;;;14.00;99.90;;;;;;10266921;28;20318;-79
2023/01/02 19:39:55;;;;;;;2.00;1.90;;;13.90;99.90;;;;;;10295446;28;20643;-79
2023/01/02 19:44:59;;;;;;;1.50;1.40;;;13.90;99.90;;;;;;10290738;28;20582;-81
2023/01/02 19:50:04;;;;;;;2.10;2.00;;;13.90;99.90;;;;;;10290849;28;20194;-81
2023/01/02 19:55:09;;;;;;;2.30;2.20;;;13.90;99.90;;;;;;10282417;28;20220;-81
2023/01/02 20:00:14;;;;;;;2.00;1.90;;;13.80;99.90;;;;;;10263117;28;20231;-81
2023/01/02 20:05:18;;;;;;;2.50;2.40;;;13.80;99.90;;;;;;10287519;28;20212;-80
2023/01/02 20:10:21;;;;;;;2.43;2.33;;;13.80;99.90;;;;;;10257169;28;20236;-80
2023/01/02 20:15:25;;;;;;;3.00;2.80;;;13.80;99.90;;;;;;10256636;28;20235;-80
2023/01/02 20:20:28;;;;;;;2.40;2.30;;;13.70;99.90;;;;;;10271770;28;20231;-80
2023/01/02 20:25:31;;;;;;;1.40;1.30;;;13.70;99.90;;;;;;10260130;28;20251;-80
2023/01/02 20:30:33;;;;;;;2.07;1.97;;;13.60;99.90;;;;;;10284388;28;20290;-80
2023/01/02 20:35:36;;;;;;;2.70;2.60;;;13.60;99.90;;;;;;10276045;28;20311;-80
2023/01/02 20:40:38;;;;;;;1.80;1.70;;;13.60;99.90;;;;;;10292075;28;20262;-80
2023/01/02 20:45:40;;;;;;;1.73;1.73;;;13.50;99.90;;;;;;10294961;28;20587;-80
2023/01/02 20:50:44;;;;;;;1.90;1.80;;;13.50;99.90;;;;;;10295758;28;20623;-82
2023/01/02 20:55:46;;;;;;;1.77;1.67;;;13.50;99.90;;;;;;10309562;28;20228;-80
2023/01/02 21:00:48;;;;;;;2.23;2.13;;;13.40;99.90;;;;;;10281232;28;20719;-80
2023/01/02 21:05:52;;;;;;;2.37;2.17;;;13.40;99.90;;;;;;10322191;23;20232;-80
2023/01/02 21:10:54;;;;;;;2.47;2.30;;;13.40;99.90;;;;;;10353630;28;20306;-80
2023/01/02 21:15:57;;;;;;;2.40;2.30;;;13.40;99.90;;;;;;10365851;28;20808;-81
2023/01/02 21:21:04;;;;;;;3.00;2.80;;;13.40;99.90;;;;;;10366262;28;20673;-80
2023/01/02 21:26:08;;;;;;;2.90;2.73;;;13.40;99.90;;;;;;10352086;28;20207;-80
2023/01/02 21:31:11;;;;;;;2.47;2.37;;;13.40;99.90;;;;;;10359366;28;20252;-82
2023/01/02 21:36:15;;;;;;;2.60;2.43;;;13.30;99.90;;;;;;10350126;28;20210;-80
2023/01/02 21:46:36;;;;;;;2.60;2.50;;;13.30;99.90;;;;;;10343026;28;20213;-81
2023/01/02 21:51:40;;;;;;;2.60;2.50;;;13.30;99.90;;;;;;10349465;28;20219;-81
2023/01/02 21:56:42;;;;;;;2.60;2.50;;;13.30;99.90;;;;;;10357846;28;20230;-81
2023/01/02 22:01:44;;;;;;;2.60;2.50;;;13.30;99.90;;;;;;10366607;28;20629;-80
2023/01/02 22:06:48;;;;;;;2.57;2.47;;;13.30;99.90;;;;;;10359591;28;20284;-80
2023/01/02 22:11:55;;;;;;;2.47;2.30;;;13.20;99.90;;;;;;10369449;28;20223;-80
2023/01/02 22:16:59;;;;;;;2.33;2.23;;;13.20;99.90;;;;;;10332228;28;20589;-80
2023/01/02 22:22:04;;;;;;;2.60;2.50;;;13.10;99.90;;;;;;10336613;28;20250;-80
2023/01/02 22:27:08;;;;;;;2.43;2.33;;;13.10;99.90;;;;;;10352050;28;20219;-80
2023/01/02 22:32:10;;;;;;;2.30;2.20;;;13.10;99.90;;;;;;10361554;28;20200;-80
2023/01/02 22:37:15;;;;;;;2.30;2.20;;;13.10;99.90;;;;;;10337380;28;20297;-80
2023/01/02 22:47:39;;;;;;;2.30;2.10;;;13.10;99.40;;;;;;10353951;28;20250;-80
2023/01/02 22:52:43;;;;;;;2.30;2.20;;;13.00;99.70;;;;;;10374110;28;20195;-80
2023/01/02 22:57:45;;;;;;;2.53;2.30;;;13.00;99.90;;;;;;10347659;28;20582;-80
2023/01/02 23:02:47;;;;;;;1.77;1.67;;;13.00;99.00;;;;;;10368034;28;20258;-80
2023/01/02 23:07:50;;;;;;;2.13;1.60;;;13.00;99.10;;;;;;10346874;28;20660;-80
2023/01/02 23:12:54;;;;;;;1.37;1.30;;;13.00;98.30;;;;;;10349548;28;20197;-80
2023/01/02 23:23:17;;;;;;;2.47;2.27;;;12.90;98.60;;;;;;10359607;28;20241;-80
2023/01/02 23:28:19;;;;;;;4.37;4.03;;;12.90;98.80;;;;;;10328314;28;20253;-80
2023/01/02 23:33:21;;;;;;;1.50;1.40;;;12.80;98.90;;;;;;10360070;28;20198;-80
2023/01/02 23:38:24;;;;;;;1.70;1.60;;;12.80;98.80;;;;;;10340431;28;20219;-81
2023/01/02 23:43:27;;;;;;;1.70;1.63;;;12.80;99.20;;;;;;10340911;28;20221;-81
2023/01/02 23:48:29;;;;;;;1.50;1.50;;;12.80;99.10;;;;;;10367534;28;20690;-81
2023/01/02 23:53:32;;;;;;;1.77;1.67;;;12.80;99.10;;;;;;10372862;28;20199;-80
2023/01/02 23:58:35;;;;;;;3.53;1.67;;;12.80;99.20;;;;;;10371009;28;20225;-80
